createdAt,value
2019-06-15T00:00:36.596Z,984.41
2019-06-15T00:01:36.748Z,984.39
2019-06-15T00:02:36.901Z,984.31
2019-06-15T00:03:37.051Z,984.29
2019-06-15T00:04:37.206Z,984.29
2019-06-15T00:05:37.356Z,984.27
2019-06-15T00:06:37.509Z,984.25
2019-06-15T00:07:37.663Z,984.25
2019-06-15T00:08:37.820Z,984.22
2019-06-15T00:09:37.964Z,984.16
2019-06-15T00:10:38.120Z,984.16
2019-06-15T00:11:38.274Z,984.17
2019-06-15T00:12:38.420Z,984.14
2019-06-15T00:13:38.573Z,984.09
2019-06-15T00:14:38.727Z,984.06
2019-06-15T00:15:38.880Z,984.01
2019-06-15T00:16:39.020Z,983.96
2019-06-15T00:17:39.173Z,983.95
2019-06-15T00:18:39.325Z,983.91
2019-06-15T00:19:39.478Z,983.90
2019-06-15T00:20:39.631Z,983.89
2019-06-15T00:21:39.784Z,983.83
2019-06-15T00:22:39.935Z,983.76
2019-06-15T00:23:40.089Z,983.77
2019-06-15T00:24:40.242Z,983.77
2019-06-15T00:25:40.392Z,983.77
2019-06-15T00:26:40.543Z,983.75
2019-06-15T00:27:40.697Z,983.74
2019-06-15T00:28:40.854Z,983.68
2019-06-15T00:29:41.004Z,983.68
2019-06-15T00:30:41.171Z,983.61
2019-06-15T00:31:41.316Z,983.59
2019-06-15T00:32:41.462Z,983.59
2019-06-15T00:33:41.614Z,983.53
2019-06-15T00:34:41.772Z,983.55
2019-06-15T00:35:41.916Z,983.56
2019-06-15T00:36:42.068Z,983.57
2019-06-15T00:37:42.220Z,983.60
2019-06-15T00:38:42.373Z,983.58
2019-06-15T00:39:42.523Z,983.60
2019-06-15T00:40:42.673Z,983.61
2019-06-15T00:41:42.824Z,983.61
2019-06-15T00:42:42.978Z,983.61
2019-06-15T00:43:43.130Z,983.60
2019-06-15T00:44:43.281Z,983.60
2019-06-15T00:45:43.434Z,983.65
2019-06-15T00:46:43.589Z,983.60
2019-06-15T00:47:43.744Z,983.61
2019-06-15T00:48:43.894Z,983.59
2019-06-15T00:49:44.042Z,983.60
2019-06-15T00:50:44.192Z,983.57
2019-06-15T00:51:44.348Z,983.58
2019-06-15T00:52:44.498Z,983.52
2019-06-15T00:53:44.648Z,983.50
2019-06-15T00:54:50.290Z,983.45
2019-06-15T00:55:44.954Z,983.42
2019-06-15T00:56:45.103Z,983.36
2019-06-15T00:57:45.256Z,983.40
2019-06-15T00:58:45.408Z,983.38
2019-06-15T00:59:45.560Z,983.34
2019-06-15T01:00:45.735Z,983.38
2019-06-15T01:01:45.868Z,983.35
2019-06-15T01:02:46.030Z,983.29
2019-06-15T01:03:46.166Z,983.30
2019-06-15T01:04:46.323Z,983.25
2019-06-15T01:05:46.474Z,983.28
2019-06-15T01:06:46.627Z,983.22
2019-06-15T01:07:46.777Z,983.19
2019-06-15T01:08:46.929Z,983.10
2019-06-15T01:09:47.081Z,983.12
2019-06-15T01:10:47.235Z,983.08
2019-06-15T01:11:47.384Z,983.04
2019-06-15T01:12:47.536Z,983.03
2019-06-15T01:13:47.690Z,983.00
2019-06-15T01:14:47.836Z,982.96
2019-06-15T01:15:47.989Z,982.89
2019-06-15T01:16:48.140Z,982.86
2019-06-15T01:17:48.292Z,982.83
2019-06-15T01:18:48.478Z,982.80
2019-06-15T01:19:48.597Z,982.73
2019-06-15T01:20:48.755Z,982.67
2019-06-15T01:21:48.903Z,982.65
2019-06-15T01:22:49.054Z,982.60
2019-06-15T01:23:49.207Z,982.55
2019-06-15T01:24:49.358Z,982.52
2019-06-15T01:25:49.508Z,982.47
2019-06-15T01:26:49.666Z,982.44
2019-06-15T01:27:49.814Z,982.39
2019-06-15T01:28:49.967Z,982.33
2019-06-15T01:29:50.120Z,982.29
2019-06-15T01:30:50.273Z,982.29
2019-06-15T01:31:50.506Z,982.29
2019-06-15T01:32:50.575Z,982.31
2019-06-15T01:33:50.726Z,982.28
2019-06-15T01:34:50.875Z,982.26
2019-06-15T01:35:51.028Z,982.26
2019-06-15T01:36:51.180Z,982.29
2019-06-15T01:37:51.332Z,982.27
2019-06-15T01:38:51.488Z,982.24
2019-06-15T01:39:51.639Z,982.22
2019-06-15T01:40:51.795Z,982.20
2019-06-15T01:41:51.941Z,982.12
2019-06-15T01:42:52.092Z,982.14
2019-06-15T01:43:52.270Z,982.12
2019-06-15T01:44:52.400Z,982.14
2019-06-15T01:45:52.550Z,982.18
2019-06-15T01:46:52.705Z,982.19
2019-06-15T01:47:52.856Z,982.20
2019-06-15T01:48:53.007Z,982.24
2019-06-15T01:49:53.161Z,982.22
2019-06-15T01:50:53.312Z,982.25
2019-06-15T01:51:53.465Z,982.29
2019-06-15T01:52:53.621Z,982.23
2019-06-15T01:53:53.769Z,982.21
2019-06-15T01:54:53.948Z,982.21
2019-06-15T01:55:54.075Z,982.16
2019-06-15T01:56:54.232Z,982.15
2019-06-15T01:57:54.380Z,982.19
2019-06-15T01:58:54.533Z,982.19
2019-06-15T01:59:54.683Z,982.18
2019-06-15T02:00:54.834Z,982.16
2019-06-15T02:01:54.988Z,982.14
2019-06-15T02:02:55.139Z,982.12
2019-06-15T02:03:55.292Z,982.13
2019-06-15T02:04:55.443Z,982.10
2019-06-15T02:05:55.591Z,982.01
2019-06-15T02:06:55.755Z,981.98
2019-06-15T02:07:55.894Z,981.95
2019-06-15T02:08:56.045Z,981.94
2019-06-15T02:09:56.195Z,981.99
2019-06-15T02:10:56.348Z,982.06
2019-06-15T02:11:56.501Z,982.19
2019-06-15T02:12:56.650Z,982.21
2019-06-15T02:13:56.802Z,982.17
2019-06-15T02:14:56.953Z,982.14
2019-06-15T02:15:57.120Z,982.12
2019-06-15T02:16:57.287Z,982.04
2019-06-15T02:17:57.406Z,981.93
2019-06-15T02:18:57.558Z,981.89
2019-06-15T02:19:57.714Z,981.94
2019-06-15T02:20:57.862Z,982.02
2019-06-15T02:21:58.016Z,982.05
2019-06-15T02:22:58.166Z,982.03
2019-06-15T02:23:58.320Z,982.00
2019-06-15T02:24:58.470Z,982.10
2019-06-15T02:25:58.622Z,982.07
2019-06-15T02:26:58.773Z,981.97
2019-06-15T02:27:58.922Z,981.73
2019-06-15T02:28:59.075Z,981.66
2019-06-15T02:29:59.229Z,981.65
2019-06-15T02:30:59.382Z,981.66
2019-06-15T02:31:59.527Z,981.67
2019-06-15T02:32:59.680Z,981.74
2019-06-15T02:33:59.827Z,981.81
2019-06-15T02:34:59.981Z,981.87
2019-06-15T02:36:00.133Z,981.99
2019-06-15T02:37:00.286Z,981.98
2019-06-15T02:38:00.443Z,981.93
2019-06-15T02:39:00.592Z,981.87
2019-06-15T02:40:00.741Z,981.77
2019-06-15T02:41:00.892Z,981.84
2019-06-15T02:42:01.041Z,981.85
2019-06-15T02:43:01.194Z,981.83
2019-06-15T02:44:01.347Z,981.76
2019-06-15T02:45:01.501Z,981.75
2019-06-15T02:46:01.664Z,981.80
2019-06-15T02:47:01.802Z,981.78
2019-06-15T02:48:02.027Z,981.75
2019-06-15T02:49:02.104Z,981.73
2019-06-15T02:50:02.289Z,981.75
2019-06-15T02:51:02.407Z,981.76
2019-06-15T02:52:02.557Z,981.79
2019-06-15T02:53:02.712Z,981.80
2019-06-15T02:54:02.864Z,981.80
2019-06-15T02:55:03.013Z,981.77
2019-06-15T02:56:03.163Z,981.74
2019-06-15T02:57:03.314Z,981.77
2019-06-15T02:58:03.468Z,981.73
2019-06-15T02:59:03.621Z,981.71
2019-06-15T03:00:03.786Z,981.70
2019-06-15T03:01:03.919Z,981.77
2019-06-15T03:02:04.069Z,981.76
2019-06-15T03:03:04.223Z,981.90
2019-06-15T03:04:04.374Z,981.87
2019-06-15T03:05:04.525Z,981.98
2019-06-15T03:06:04.677Z,981.95
2019-06-15T03:07:04.831Z,981.86
2019-06-15T03:08:04.977Z,981.90
2019-06-15T03:09:05.132Z,981.90
2019-06-15T03:10:05.285Z,981.92
2019-06-15T03:11:05.453Z,981.90
2019-06-15T03:12:05.584Z,981.89
2019-06-15T03:13:05.735Z,981.92
2019-06-15T03:14:05.897Z,981.85
2019-06-15T03:15:06.038Z,981.83
2019-06-15T03:16:06.187Z,981.81
2019-06-15T03:17:06.343Z,981.82
2019-06-15T03:18:06.495Z,981.88
2019-06-15T03:19:06.646Z,981.92
2019-06-15T03:20:06.797Z,981.99
2019-06-15T03:21:06.947Z,982.02
2019-06-15T03:22:07.099Z,982.04
2019-06-15T03:23:07.251Z,982.01
2019-06-15T03:24:07.402Z,982.06
2019-06-15T03:25:07.554Z,982.09
2019-06-15T03:26:07.706Z,982.07
2019-06-15T03:27:07.860Z,982.04
2019-06-15T03:28:08.007Z,982.08
2019-06-15T03:29:08.164Z,982.06
2019-06-15T03:30:08.333Z,982.04
2019-06-15T03:31:08.470Z,982.01
2019-06-15T03:32:08.621Z,982.03
2019-06-15T03:33:08.770Z,982.02
2019-06-15T03:34:08.922Z,982.00
2019-06-15T03:35:09.073Z,981.97
2019-06-15T03:36:09.223Z,981.94
2019-06-15T03:37:09.374Z,981.94
2019-06-15T03:38:09.527Z,981.92
2019-06-15T03:39:09.680Z,981.96
2019-06-15T03:40:09.832Z,981.95
2019-06-15T03:41:09.983Z,981.92
2019-06-15T03:42:10.133Z,981.92
2019-06-15T03:43:10.286Z,981.90
2019-06-15T03:44:10.439Z,981.90
2019-06-15T03:45:10.592Z,981.88
2019-06-15T03:46:10.743Z,981.89
2019-06-15T03:47:10.895Z,981.85
2019-06-15T03:48:11.046Z,981.91
2019-06-15T03:49:11.199Z,981.94
2019-06-15T03:50:11.358Z,981.94
2019-06-15T03:51:11.504Z,981.91
2019-06-15T03:52:11.656Z,981.89
2019-06-15T03:53:11.808Z,981.86
2019-06-15T03:54:11.963Z,981.83
2019-06-15T03:55:12.113Z,981.86
2019-06-15T03:56:21.102Z,981.84
2019-06-15T03:57:12.418Z,981.90
2019-06-15T03:58:12.570Z,981.89
2019-06-15T03:59:12.723Z,981.81
2019-06-15T04:00:12.872Z,981.83
2019-06-15T04:01:13.026Z,981.78
2019-06-15T04:02:13.174Z,981.76
2019-06-15T04:03:13.328Z,981.76
2019-06-15T04:04:13.480Z,981.78
2019-06-15T04:05:13.631Z,981.78
2019-06-15T04:06:13.786Z,981.83
2019-06-15T04:07:13.938Z,981.82
2019-06-15T04:08:14.091Z,981.81
2019-06-15T04:09:14.242Z,981.75
2019-06-15T04:10:14.393Z,981.74
2019-06-15T04:11:14.554Z,981.72
2019-06-15T04:12:14.728Z,981.71
2019-06-15T04:13:14.853Z,981.73
2019-06-15T04:14:15.004Z,981.69
2019-06-15T04:15:15.156Z,981.70
2019-06-15T04:16:15.307Z,981.65
2019-06-15T04:17:15.475Z,981.64
2019-06-15T04:18:15.635Z,981.63
2019-06-15T04:19:15.765Z,981.60
2019-06-15T04:20:15.916Z,981.62
2019-06-15T04:21:16.127Z,981.66
2019-06-15T04:22:16.218Z,981.72
2019-06-15T04:23:16.368Z,981.73
2019-06-15T04:24:16.563Z,981.72
2019-06-15T04:25:16.666Z,981.72
2019-06-15T04:26:16.819Z,981.63
2019-06-15T04:27:16.969Z,981.62
2019-06-15T04:28:17.138Z,981.62
2019-06-15T04:29:17.277Z,981.58
2019-06-15T04:30:17.429Z,981.61
2019-06-15T04:31:17.584Z,981.61
2019-06-15T04:32:17.734Z,981.56
2019-06-15T04:33:17.884Z,981.57
2019-06-15T04:34:18.035Z,981.55
2019-06-15T04:35:18.185Z,981.55
2019-06-15T04:36:18.357Z,981.56
2019-06-15T04:37:18.491Z,981.56
2019-06-15T04:38:18.638Z,981.52
2019-06-15T04:39:18.808Z,981.47
2019-06-15T04:40:18.943Z,981.51
2019-06-15T04:41:19.097Z,981.52
2019-06-15T04:42:19.249Z,981.54
2019-06-15T04:43:19.400Z,981.51
2019-06-15T04:44:19.552Z,981.57
2019-06-15T04:45:19.703Z,981.61
2019-06-15T04:46:19.857Z,981.63
2019-06-15T04:47:20.011Z,981.63
2019-06-15T04:48:20.164Z,981.67
2019-06-15T04:49:20.314Z,981.73
2019-06-15T04:50:20.468Z,981.74
2019-06-15T04:51:20.619Z,981.76
2019-06-15T04:52:20.773Z,981.82
2019-06-15T04:53:20.925Z,981.84
2019-06-15T04:54:21.170Z,981.79
2019-06-15T04:55:21.230Z,981.85
2019-06-15T04:56:21.384Z,981.85
2019-06-15T04:57:21.552Z,981.86
2019-06-15T04:58:21.692Z,981.87
2019-06-15T04:59:21.845Z,981.93
2019-06-15T05:00:22.012Z,981.99
2019-06-15T05:01:22.157Z,982.02
2019-06-15T05:02:22.299Z,982.07
2019-06-15T05:03:22.456Z,982.07
2019-06-15T05:04:22.610Z,982.12
2019-06-15T05:05:22.763Z,982.16
2019-06-15T05:06:22.925Z,982.15
2019-06-15T05:07:23.069Z,982.14
2019-06-15T05:08:23.221Z,982.13
2019-06-15T05:09:23.412Z,982.14
2019-06-15T05:10:23.526Z,982.14
2019-06-15T05:11:23.680Z,982.16
2019-06-15T05:12:23.833Z,982.22
2019-06-15T05:13:23.986Z,982.24
2019-06-15T05:14:24.140Z,982.24
2019-06-15T05:15:24.292Z,982.25
2019-06-15T05:16:24.445Z,982.25
2019-06-15T05:17:24.600Z,982.18
2019-06-15T05:18:24.774Z,982.14
2019-06-15T05:19:24.906Z,982.20
2019-06-15T05:20:25.074Z,982.18
2019-06-15T05:21:25.228Z,982.18
2019-06-15T05:22:25.387Z,982.22
2019-06-15T05:23:25.529Z,982.25
2019-06-15T05:24:25.688Z,982.26
2019-06-15T05:25:25.839Z,982.27
2019-06-15T05:26:25.989Z,982.25
2019-06-15T05:27:26.141Z,982.28
2019-06-15T05:28:26.293Z,982.32
2019-06-15T05:29:26.449Z,982.31
2019-06-15T05:30:26.610Z,982.19
2019-06-15T05:31:26.752Z,982.30
2019-06-15T05:32:26.905Z,982.37
2019-06-15T05:33:27.060Z,982.31
2019-06-15T05:34:27.213Z,982.23
2019-06-15T05:35:27.364Z,982.20
2019-06-15T05:36:27.535Z,982.25
2019-06-15T05:37:27.662Z,982.32
2019-06-15T05:38:27.814Z,982.35
2019-06-15T05:39:27.970Z,982.33
2019-06-15T05:40:28.121Z,982.23
2019-06-15T05:41:28.277Z,982.33
2019-06-15T05:42:28.429Z,982.39
2019-06-15T05:43:28.583Z,982.32
2019-06-15T05:44:28.735Z,982.36
2019-06-15T05:45:28.888Z,982.42
2019-06-15T05:46:29.039Z,982.40
2019-06-15T05:47:29.197Z,982.39
2019-06-15T05:48:29.348Z,982.43
2019-06-15T05:49:29.502Z,982.48
2019-06-15T05:50:29.654Z,982.55
2019-06-15T05:51:29.808Z,982.57
2019-06-15T05:52:29.976Z,982.58
2019-06-15T05:53:30.128Z,982.54
2019-06-15T05:54:30.279Z,982.57
2019-06-15T05:55:30.435Z,982.58
2019-06-15T05:56:33.410Z,982.61
2019-06-15T05:57:30.732Z,982.64
2019-06-15T05:58:30.883Z,982.61
2019-06-15T05:59:31.039Z,982.66
2019-06-15T06:00:31.196Z,982.66
2019-06-15T06:01:31.350Z,982.69
2019-06-15T06:02:31.502Z,982.71
2019-06-15T06:03:31.655Z,982.72
2019-06-15T06:04:31.810Z,982.72
2019-06-15T06:05:31.965Z,982.77
2019-06-15T06:06:32.119Z,982.77
2019-06-15T06:07:32.278Z,982.80
2019-06-15T06:08:32.438Z,982.83
2019-06-15T06:09:32.586Z,982.87
2019-06-15T06:10:32.739Z,982.82
2019-06-15T06:11:32.896Z,982.87
2019-06-15T06:12:33.050Z,982.89
2019-06-15T06:13:33.205Z,982.95
2019-06-15T06:14:33.366Z,982.95
2019-06-15T06:15:33.511Z,982.98
2019-06-15T06:16:33.664Z,982.96
2019-06-15T06:17:33.822Z,982.95
2019-06-15T06:18:33.977Z,983.03
2019-06-15T06:19:34.135Z,983.03
2019-06-15T06:20:34.286Z,983.04
2019-06-15T06:21:34.435Z,983.05
2019-06-15T06:22:34.594Z,983.09
2019-06-15T06:23:34.744Z,983.10
2019-06-15T06:24:34.897Z,983.11
2019-06-15T06:25:35.051Z,983.14
2019-06-15T06:26:35.206Z,983.15
2019-06-15T06:27:36.764Z,983.12
2019-06-15T06:28:35.521Z,983.21
2019-06-15T06:29:35.669Z,983.22
2019-06-15T06:30:35.821Z,983.22
2019-06-15T06:31:35.979Z,983.23
2019-06-15T06:32:36.131Z,983.24
2019-06-15T06:33:36.285Z,983.28
2019-06-15T06:34:36.446Z,983.35
2019-06-15T06:35:36.594Z,983.35
2019-06-15T06:36:36.750Z,983.42
2019-06-15T06:37:36.906Z,983.44
2019-06-15T06:38:37.060Z,983.51
2019-06-15T06:39:37.215Z,983.55
2019-06-15T06:40:37.370Z,983.55
2019-06-15T06:41:37.524Z,983.71
2019-06-15T06:42:37.713Z,983.74
2019-06-15T06:43:37.831Z,983.78
2019-06-15T06:44:37.989Z,983.84
2019-06-15T06:45:38.191Z,983.81
2019-06-15T06:46:38.294Z,983.77
2019-06-15T06:47:38.448Z,983.85
2019-06-15T06:48:38.603Z,983.99
2019-06-15T06:49:38.758Z,983.96
2019-06-15T06:50:41.250Z,984.06
2019-06-15T06:51:39.066Z,984.07
2019-06-15T06:52:39.220Z,984.00
2019-06-15T06:53:39.379Z,984.08
2019-06-15T06:54:39.530Z,984.12
2019-06-15T06:55:39.688Z,984.18
2019-06-15T06:56:39.850Z,984.24
2019-06-15T06:57:51.892Z,984.14
2019-06-15T06:58:40.144Z,984.23
2019-06-15T06:59:40.302Z,984.23
2019-06-15T07:00:40.452Z,984.18
2019-06-15T07:01:40.609Z,984.20
2019-06-15T07:02:40.766Z,984.18
2019-06-15T07:03:40.921Z,984.18
2019-06-15T07:04:41.075Z,984.17
2019-06-15T07:05:41.243Z,984.16
2019-06-15T07:06:41.452Z,984.20
2019-06-15T07:07:41.539Z,984.17
2019-06-15T07:08:41.679Z,984.21
2019-06-15T07:09:41.837Z,984.26
2019-06-15T07:10:41.987Z,984.20
2019-06-15T07:11:42.146Z,984.20
2019-06-15T07:12:42.298Z,984.24
2019-06-15T07:13:42.452Z,984.23
2019-06-15T07:14:42.609Z,984.25
2019-06-15T07:15:42.762Z,984.20
2019-06-15T07:16:42.941Z,984.17
2019-06-15T07:17:43.076Z,984.19
2019-06-15T07:18:43.233Z,984.24
2019-06-15T07:19:43.394Z,984.23
2019-06-15T07:20:43.545Z,984.25
2019-06-15T07:21:43.744Z,984.31
2019-06-15T07:22:43.851Z,984.23
2019-06-15T07:23:44.063Z,984.28
2019-06-15T07:24:44.190Z,984.26
2019-06-15T07:25:44.313Z,984.28
2019-06-15T07:26:44.462Z,984.26
2019-06-15T07:27:44.618Z,984.21
2019-06-15T07:28:44.775Z,984.23
2019-06-15T07:29:44.935Z,984.25
2019-06-15T07:30:45.091Z,984.29
2019-06-15T07:31:45.245Z,984.36
2019-06-15T07:32:45.400Z,984.35
2019-06-15T07:33:45.557Z,984.42
2019-06-15T07:34:45.714Z,984.39
2019-06-15T07:35:45.869Z,984.48
2019-06-15T07:36:46.024Z,984.50
2019-06-15T07:37:46.181Z,984.53
2019-06-15T07:38:46.337Z,984.55
2019-06-15T07:39:46.496Z,984.60
2019-06-15T07:40:46.649Z,984.60
2019-06-15T07:41:46.806Z,984.69
2019-06-15T07:42:46.962Z,984.59
2019-06-15T07:43:47.116Z,984.60
2019-06-15T07:44:47.271Z,984.58
2019-06-15T07:45:47.428Z,984.57
2019-06-15T07:46:47.584Z,984.64
2019-06-15T07:47:47.739Z,984.66
2019-06-15T07:48:47.891Z,984.63
2019-06-15T07:49:48.046Z,984.67
2019-06-15T07:50:48.205Z,984.62
2019-06-15T07:51:48.360Z,984.66
2019-06-15T07:52:48.635Z,984.66
2019-06-15T07:53:48.675Z,984.72
2019-06-15T07:54:48.828Z,984.65
2019-06-15T07:55:48.982Z,984.68
2019-06-15T07:56:49.139Z,984.71
2019-06-15T07:57:49.299Z,984.75
2019-06-15T07:58:49.452Z,984.73
2019-06-15T07:59:49.610Z,984.73
2019-06-15T08:00:49.764Z,984.80
2019-06-15T08:01:49.920Z,984.80
2019-06-15T08:02:50.077Z,984.82
2019-06-15T08:03:50.233Z,984.87
2019-06-15T08:04:50.387Z,984.86
2019-06-15T08:05:50.542Z,984.88
2019-06-15T08:06:50.706Z,984.90
2019-06-15T08:07:50.892Z,984.93
2019-06-15T08:08:51.038Z,985.01
2019-06-15T08:09:51.169Z,985.02
2019-06-15T08:10:51.323Z,985.04
2019-06-15T08:11:51.480Z,985.02
2019-06-15T08:12:51.634Z,985.04
2019-06-15T08:13:51.789Z,985.01
2019-06-15T08:14:51.948Z,984.99
2019-06-15T08:15:52.101Z,984.98
2019-06-15T08:16:52.262Z,984.95
2019-06-15T08:17:52.414Z,984.99
2019-06-15T08:18:52.607Z,985.01
2019-06-15T08:19:52.736Z,984.99
2019-06-15T08:20:52.884Z,985.08
2019-06-15T08:21:53.038Z,985.08
2019-06-15T08:22:53.196Z,985.00
2019-06-15T08:23:53.351Z,985.00
2019-06-15T08:24:53.508Z,985.04
2019-06-15T08:25:53.663Z,985.08
2019-06-15T08:26:53.819Z,985.22
2019-06-15T08:27:53.982Z,985.09
2019-06-15T08:28:54.141Z,985.08
2019-06-15T08:29:54.289Z,985.13
2019-06-15T08:30:54.455Z,985.21
2019-06-15T08:31:54.603Z,985.22
2019-06-15T08:32:54.758Z,985.38
2019-06-15T08:33:54.915Z,985.12
2019-06-15T08:34:55.076Z,985.32
2019-06-15T08:35:55.231Z,985.34
2019-06-15T08:36:55.387Z,985.38
2019-06-15T08:37:55.548Z,985.36
2019-06-15T08:38:55.702Z,985.35
2019-06-15T08:39:55.859Z,985.36
2019-06-15T08:40:56.015Z,985.39
2019-06-15T08:41:56.962Z,985.44
2019-06-15T08:42:56.327Z,985.49
2019-06-15T08:43:56.482Z,985.43
2019-06-15T08:44:56.640Z,985.51
2019-06-15T08:45:56.795Z,985.57
2019-06-15T08:46:59.319Z,985.63
2019-06-15T08:47:57.116Z,985.65
2019-06-15T08:48:57.353Z,985.67
2019-06-15T08:49:57.422Z,985.58
2019-06-15T08:50:57.615Z,985.60
2019-06-15T08:51:57.765Z,985.64
2019-06-15T08:52:57.943Z,985.63
2019-06-15T08:53:58.090Z,985.71
2019-06-15T08:54:58.241Z,985.71
2019-06-15T08:55:58.393Z,985.66
2019-06-15T08:56:58.549Z,985.74
2019-06-15T08:57:58.707Z,985.74
2019-06-15T08:58:58.869Z,985.76
2019-06-15T08:59:59.016Z,985.82
2019-06-15T09:00:59.173Z,985.90
2019-06-15T09:01:59.330Z,985.86
2019-06-15T09:02:59.487Z,985.75
2019-06-15T09:03:59.645Z,985.86
2019-06-15T09:04:59.799Z,985.80
2019-06-15T09:05:59.958Z,985.86
2019-06-15T09:07:00.118Z,985.83
2019-06-15T09:08:00.282Z,985.87
2019-06-15T09:09:00.438Z,985.90
2019-06-15T09:10:00.590Z,985.80
2019-06-15T09:11:00.751Z,985.73
2019-06-15T09:12:00.910Z,985.88
2019-06-15T09:13:01.066Z,985.78
2019-06-15T09:14:01.221Z,985.87
2019-06-15T09:15:01.424Z,985.88
2019-06-15T09:16:01.546Z,985.95
2019-06-15T09:17:01.735Z,985.96
2019-06-15T09:18:01.851Z,985.94
2019-06-15T09:19:02.006Z,985.95
2019-06-15T09:20:02.160Z,985.98
2019-06-15T09:21:02.360Z,985.90
2019-06-15T09:22:02.498Z,986.02
2019-06-15T09:23:02.631Z,986.04
2019-06-15T09:24:02.794Z,986.02
2019-06-15T09:25:02.947Z,986.01
2019-06-15T09:26:03.106Z,985.98
2019-06-15T09:27:03.260Z,986.06
2019-06-15T09:28:03.418Z,986.18
2019-06-15T09:29:11.374Z,986.06
2019-06-15T09:30:03.738Z,986.12
2019-06-15T09:31:03.891Z,986.11
2019-06-15T09:32:04.048Z,986.19
2019-06-15T09:33:04.202Z,986.17
2019-06-15T09:34:17.985Z,986.13
2019-06-15T09:35:04.517Z,986.14
2019-06-15T09:36:04.679Z,986.36
2019-06-15T09:37:04.835Z,986.32
2019-06-15T09:38:04.995Z,986.32
2019-06-15T09:39:05.152Z,986.33
2019-06-15T09:40:05.307Z,986.33
2019-06-15T09:41:05.466Z,986.30
2019-06-15T09:42:05.625Z,986.27
2019-06-15T09:43:05.781Z,986.26
2019-06-15T09:44:05.942Z,986.31
2019-06-15T09:45:06.095Z,986.40
2019-06-15T09:46:06.288Z,986.42
2019-06-15T09:47:06.411Z,986.40
2019-06-15T09:48:06.602Z,986.49
2019-06-15T09:49:06.723Z,986.42
2019-06-15T09:50:06.876Z,986.52
2019-06-15T09:51:07.031Z,986.47
2019-06-15T09:52:07.190Z,986.51
2019-06-15T09:53:07.343Z,986.53
2019-06-15T09:54:07.500Z,986.57
2019-06-15T09:55:07.657Z,986.46
2019-06-15T09:56:07.812Z,986.46
2019-06-15T09:57:07.969Z,986.53
2019-06-15T09:58:08.140Z,986.51
2019-06-15T09:59:08.309Z,986.52
2019-06-15T10:00:08.453Z,986.56
2019-06-15T10:01:08.612Z,986.60
2019-06-15T10:02:08.771Z,986.51
2019-06-15T10:03:08.929Z,986.55
2019-06-15T10:04:09.089Z,986.61
2019-06-15T10:05:09.244Z,986.61
2019-06-15T10:06:11.729Z,986.63
2019-06-15T10:07:09.560Z,986.64
2019-06-15T10:08:09.718Z,986.68
2019-06-15T10:09:09.878Z,986.71
2019-06-15T10:10:10.047Z,986.75
2019-06-15T10:11:10.198Z,986.81
2019-06-15T10:12:10.350Z,986.68
2019-06-15T10:13:10.506Z,986.73
2019-06-15T10:14:10.664Z,986.87
2019-06-15T10:15:10.822Z,986.80
2019-06-15T10:16:10.982Z,986.87
2019-06-15T10:17:11.142Z,986.86
2019-06-15T10:18:11.297Z,986.83
2019-06-15T10:19:11.456Z,986.75
2019-06-15T10:20:11.609Z,986.77
2019-06-15T10:21:11.768Z,986.82
2019-06-15T10:22:11.947Z,986.83
2019-06-15T10:23:12.083Z,986.81
2019-06-15T10:24:12.241Z,986.84
2019-06-15T10:25:12.399Z,986.92
2019-06-15T10:26:12.557Z,986.86
2019-06-15T10:27:12.719Z,986.88
2019-06-15T10:28:12.873Z,986.90
2019-06-15T10:29:13.038Z,986.83
2019-06-15T10:30:13.195Z,986.95
2019-06-15T10:31:13.355Z,986.90
2019-06-15T10:32:13.511Z,986.91
2019-06-15T10:33:13.667Z,986.96
2019-06-15T10:34:13.827Z,986.98
2019-06-15T10:35:13.984Z,986.98
2019-06-15T10:36:14.142Z,986.99
2019-06-15T10:37:14.308Z,987.04
2019-06-15T10:38:14.457Z,987.20
2019-06-15T10:39:14.614Z,987.16
2019-06-15T10:40:14.788Z,987.12
2019-06-15T10:41:14.931Z,987.12
2019-06-15T10:42:15.088Z,987.15
2019-06-15T10:43:15.246Z,987.21
2019-06-15T10:44:15.406Z,987.29
2019-06-15T10:45:15.565Z,987.25
2019-06-15T10:46:15.739Z,987.26
2019-06-15T10:47:15.881Z,987.17
2019-06-15T10:48:16.038Z,987.21
2019-06-15T10:49:16.196Z,987.16
2019-06-15T10:50:16.355Z,987.07
2019-06-15T10:51:16.516Z,987.15
2019-06-15T10:52:16.667Z,987.15
2019-06-15T10:53:16.823Z,987.20
2019-06-15T10:54:16.981Z,987.23
2019-06-15T10:55:17.143Z,987.32
2019-06-15T10:56:17.299Z,987.26
2019-06-15T10:57:17.457Z,987.26
2019-06-15T10:58:17.617Z,987.29
2019-06-15T10:59:17.776Z,987.28
2019-06-15T11:00:17.935Z,987.23
2019-06-15T11:01:18.093Z,987.34
2019-06-15T11:02:18.267Z,987.29
2019-06-15T11:03:18.410Z,987.30
2019-06-15T11:04:18.564Z,987.28
2019-06-15T11:05:18.724Z,987.26
2019-06-15T11:06:18.889Z,987.23
2019-06-15T11:07:19.040Z,987.24
2019-06-15T11:08:19.224Z,987.23
2019-06-15T11:09:19.357Z,987.20
2019-06-15T11:10:19.511Z,987.22
2019-06-15T11:11:21.656Z,987.24
2019-06-15T11:12:19.838Z,987.22
2019-06-15T11:13:19.989Z,987.30
2019-06-15T11:14:20.141Z,987.25
2019-06-15T11:15:20.298Z,987.35
2019-06-15T11:16:20.459Z,987.20
2019-06-15T11:17:20.616Z,987.32
2019-06-15T11:18:20.773Z,987.27
2019-06-15T11:19:20.935Z,987.32
2019-06-15T11:20:21.108Z,987.32
2019-06-15T11:21:21.257Z,987.38
2019-06-15T11:22:21.415Z,987.34
2019-06-15T11:23:21.578Z,987.34
2019-06-15T11:24:21.731Z,987.39
2019-06-15T11:25:21.889Z,987.39
2019-06-15T11:26:22.070Z,987.34
2019-06-15T11:27:22.211Z,987.49
2019-06-15T11:28:22.388Z,987.48
2019-06-15T11:29:22.521Z,987.42
2019-06-15T11:30:22.682Z,987.46
2019-06-15T11:31:22.844Z,987.52
2019-06-15T11:32:23.009Z,987.38
2019-06-15T11:33:23.224Z,987.44
2019-06-15T11:34:23.328Z,987.46
2019-06-15T11:35:23.488Z,987.46
2019-06-15T11:36:23.642Z,987.45
2019-06-15T11:37:23.804Z,987.42
2019-06-15T11:38:23.959Z,987.56
2019-06-15T11:39:24.119Z,987.45
2019-06-15T11:40:24.277Z,987.49
2019-06-15T11:41:24.432Z,987.50
2019-06-15T11:42:24.593Z,987.52
2019-06-15T11:43:24.749Z,987.45
2019-06-15T11:44:24.915Z,987.48
2019-06-15T11:45:25.065Z,987.47
2019-06-15T11:46:25.224Z,987.50
2019-06-15T11:47:25.383Z,987.48
2019-06-15T11:48:25.539Z,987.55
2019-06-15T11:49:25.697Z,987.45
2019-06-15T11:50:25.855Z,987.49
2019-06-15T11:51:26.015Z,987.47
2019-06-15T11:52:26.175Z,987.49
2019-06-15T11:53:26.334Z,987.49
2019-06-15T11:54:26.490Z,987.49
2019-06-15T11:55:38.575Z,987.50
2019-06-15T11:56:26.804Z,987.53
2019-06-15T11:57:26.959Z,987.61
2019-06-15T11:58:27.119Z,987.42
2019-06-15T11:59:27.299Z,987.47
2019-06-15T12:00:31.543Z,987.48
2019-06-15T12:01:27.593Z,987.58
2019-06-15T12:02:27.776Z,987.54
2019-06-15T12:03:27.910Z,987.46
2019-06-15T12:04:28.071Z,987.41
2019-06-15T12:05:28.272Z,987.47
2019-06-15T12:06:28.392Z,987.39
2019-06-15T12:07:28.549Z,987.42
2019-06-15T12:08:28.715Z,987.48
2019-06-15T12:09:28.868Z,987.52
2019-06-15T12:10:29.027Z,987.58
2019-06-15T12:11:29.184Z,987.59
2019-06-15T12:12:29.343Z,987.60
2019-06-15T12:13:29.503Z,987.59
2019-06-15T12:14:29.665Z,987.43
2019-06-15T12:15:29.822Z,987.56
2019-06-15T12:16:29.982Z,987.48
2019-06-15T12:17:30.201Z,987.53
2019-06-15T12:18:30.312Z,987.51
2019-06-15T12:19:30.472Z,987.45
2019-06-15T12:20:30.678Z,987.51
2019-06-15T12:21:30.787Z,987.55
2019-06-15T12:22:30.945Z,987.53
2019-06-15T12:23:31.106Z,987.52
2019-06-15T12:24:31.265Z,987.60
2019-06-15T12:25:31.436Z,987.68
2019-06-15T12:26:31.591Z,987.56
2019-06-15T12:27:31.820Z,987.57
2019-06-15T12:28:31.904Z,987.59
2019-06-15T12:29:32.068Z,987.57
2019-06-15T12:30:45.445Z,987.64